Time;durP1;ratioP1;P1;durP2;ratioP2;P2;SDS_P1;SDS_P2;PMS_P1;PMS_P2;Temp;Humidity;BMP_temperature;BMP_pressure;BME280_temperature;BME280_humidity;BME280_pressure;Samples;Min_cycle;Max_cycle;Signal;HPM_P1;HPM_P2
2023/02/11 00:02:33;;;;;;;;;;;;;;;2.10;77.63;102109.02;105121;1289;71189;-82
2023/02/11 00:05:19;;;;;;;;;;;;;;;2.10;77.61;102116.35;104922;1291;60087;-82
2023/02/11 00:08:05;;;;;;;;;;;;;;;2.11;77.63;102109.73;104843;1290;61138;-82
2023/02/11 00:11:11;;;;;;;;;;;;;;;2.10;77.56;102104.59;104705;1291;74074;-81
2023/02/11 00:13:59;;;;;;;;;;;;;;;2.10;77.63;102098.98;104501;1290;68898;-81
2023/02/11 00:16:45;;;;;;;;;;;;;;;2.09;77.62;102094.52;104279;1291;72572;-82
2023/02/11 00:19:31;;;;;;;;;;;;;;;2.10;77.65;102085.52;104337;1291;61170;-81
2023/02/11 00:22:18;;;;;;;;;;;;;;;2.09;77.61;102088.23;105141;1293;61065;-82
2023/02/11 00:25:04;;;;;;;;;;;;;;;2.08;77.63;102082.25;105326;1291;74548;-82
2023/02/11 00:27:50;;;;;;;;;;;;;;;2.08;77.66;102070.83;105298;1291;68791;-82
2023/02/11 00:30:36;;;;;;;;;;;;;;;2.08;77.66;102037.66;105370;1291;71306;-81
2023/02/11 00:33:23;;;;;;;;;;;;;;;2.07;77.61;102015.71;105319;1293;59471;-82
2023/02/11 00:36:28;;;;;;;;;;;;;;;2.07;77.65;102008.91;105232;1291;59686;-82
2023/02/11 00:39:14;;;;;;;;;;;;;;;2.08;77.67;102009.09;105473;1290;73157;-82
2023/02/11 00:42:00;;;;;;;;;;;;;;;2.08;77.66;102003.13;105344;1291;69137;-82
2023/02/11 00:44:46;;;;;;;;;;;;;;;2.09;77.66;102000.45;105176;1294;72514;-81
2023/02/11 00:47:32;;;;;;;;;;;;;;;2.09;77.66;102000.79;105379;1290;59251;-82
2023/02/11 00:50:19;;;;;;;;;;;;;;;2.09;77.65;101994.66;105398;1291;61188;-82
2023/02/11 00:53:05;;;;;;;;;;;;;;;2.09;77.65;101981.56;105536;1290;73271;-82
2023/02/11 00:55:51;;;;;;;;;;;;;;;2.09;77.68;101972.55;105395;1289;70133;-82
2023/02/11 00:58:37;;;;;;;;;;;;;;;2.09;77.68;101977.30;105458;1288;71280;-82
2023/02/11 01:01:23;;;;;;;;;;;;;;;2.09;77.65;101985.65;105236;1290;59308;-82
2023/02/11 01:04:09;;;;;;;;;;;;;;;2.09;77.64;101998.91;105308;1291;61152;-82
2023/02/11 01:06:55;;;;;;;;;;;;;;;2.08;77.64;102000.93;105288;1288;77847;-82
2023/02/11 01:09:41;;;;;;;;;;;;;;;2.08;77.71;102005.69;105253;1293;71384;-82
2023/02/11 01:12:27;;;;;;;;;;;;;;;2.07;77.69;102002.95;105258;1289;71159;-82
2023/02/11 01:15:14;;;;;;;;;;;;;;;2.07;77.65;101988.48;105328;1291;59628;-82
2023/02/11 01:18:00;;;;;;;;;;;;;;;2.05;77.69;101984.34;105312;1291;62414;-82
2023/02/11 01:20:46;;;;;;;;;;;;;;;2.05;77.69;101990.27;105264;1292;74158;-82
2023/02/11 01:23:32;;;;;;;;;;;;;;;2.05;77.73;102004.05;105302;1291;67686;-82
2023/02/11 01:26:19;;;;;;;;;;;;;;;2.04;77.68;101988.21;105372;1292;71755;-82
2023/02/11 01:29:05;;;;;;;;;;;;;;;2.03;77.63;101985.09;105257;1290;59313;-82
2023/02/11 01:31:51;;;;;;;;;;;;;;;2.03;77.64;101994.09;105264;1291;63076;-82
2023/02/11 01:34:37;;;;;;;;;;;;;;;2.03;77.71;101995.12;105349;1289;73191;-82
2023/02/11 01:37:23;;;;;;;;;;;;;;;2.02;77.74;101995.79;105289;1291;70061;-82
2023/02/11 01:40:13;;;;;;;;;;;;;;;2.02;77.68;101991.00;105220;1293;72095;-82
2023/02/11 01:43:00;;;;;;;;;;;;;;;2.02;77.73;101987.94;105109;1295;59481;-82
2023/02/11 01:46:06;;;;;;;;;;;;;;;2.02;77.74;101986.57;105166;1295;59978;-81
2023/02/11 01:48:55;;;;;;;;;;;;;;;2.02;77.75;101964.97;104468;1299;73416;-81
2023/02/11 01:51:45;;;;;;;;;;;;;;;2.03;77.71;101955.48;104481;1305;68444;-82
2023/02/11 01:57:44;;;;;;;;;;;;;;;2.03;77.73;101921.48;104491;1299;61336;-81
2023/02/11 02:00:31;;;;;;;;;;;;;;;2.02;77.66;101924.69;104350;1304;61204;-82
2023/02/11 02:03:21;;;;;;;;;;;;;;;2.01;77.67;101935.35;104571;1299;73298;-81
2023/02/11 02:06:31;;;;;;;;;;;;;;;1.99;77.60;101933.58;104464;1300;67291;-81
2023/02/11 02:09:30;;;;;;;;;;;;;;;1.97;77.70;101935.38;104453;1299;71549;-81
2023/02/11 02:12:16;;;;;;;;;;;;;;;1.96;77.68;101946.42;104528;1299;61191;-81
2023/02/11 02:15:29;;;;;;;;;;;;;;;1.98;77.68;101941.02;104632;1297;61372;-81
2023/02/11 02:18:34;;;;;;;;;;;;;;;1.99;77.67;101942.23;104596;1301;73303;-82
2023/02/11 02:21:20;;;;;;;;;;;;;;;2.00;77.68;101935.48;104665;1297;67205;-82
2023/02/11 02:24:24;;;;;;;;;;;;;;;2.00;77.70;101931.75;104817;1297;71951;-82
2023/02/11 02:27:16;;;;;;;;;;;;;;;2.02;77.69;101922.98;105458;1293;59112;-82
2023/02/11 02:30:08;;;;;;;;;;;;;;;2.03;77.77;101915.18;105466;1290;59832;-82
2023/02/11 02:33:14;;;;;;;;;;;;;;;2.03;77.74;101900.75;105436;1293;73786;-82
2023/02/11 02:36:06;;;;;;;;;;;;;;;2.05;77.72;101891.95;105472;1294;67190;-82
2023/02/11 02:38:55;;;;;;;;;;;;;;;2.05;77.77;101888.92;105427;1288;71262;-82
2023/02/11 02:41:42;;;;;;;;;;;;;;;2.05;77.73;101891.64;105376;1288;61082;-82
2023/02/11 02:44:30;;;;;;;;;;;;;;;2.06;77.78;101890.14;105341;1288;61260;-82
2023/02/11 02:47:16;;;;;;;;;;;;;;;2.07;77.71;101884.75;105296;1292;73228;-82
2023/02/11 02:50:04;;;;;;;;;;;;;;;2.08;77.71;101887.83;105287;1294;67585;-82
2023/02/11 02:53:11;;;;;;;;;;;;;;;2.09;77.74;101889.55;105116;1289;276013;-82
2023/02/11 02:56:23;;;;;;;;;;;;;;;2.09;77.74;101874.09;105337;1289;61275;-81
2023/02/11 02:59:28;;;;;;;;;;;;;;;2.10;77.70;101861.02;104793;1296;59571;-82
2023/02/11 03:02:22;;;;;;;;;;;;;;;2.10;77.71;101860.52;104847;1297;73346;-82
2023/02/11 03:05:16;;;;;;;;;;;;;;;2.10;77.72;101853.88;104669;1300;67421;-81
2023/02/11 03:08:08;;;;;;;;;;;;;;;2.09;77.68;101845.84;104782;1297;71276;-82
2023/02/11 03:10:55;;;;;;;;;;;;;;;2.09;77.78;101850.63;105378;1297;59220;-82
2023/02/11 03:13:42;;;;;;;;;;;;;;;2.09;77.75;101849.79;105356;1296;59117;-82
2023/02/11 03:16:29;;;;;;;;;;;;;;;2.11;77.72;101839.61;105372;1299;73299;-82
2023/02/11 03:19:20;;;;;;;;;;;;;;;2.11;77.74;101824.82;105106;1299;67228;-82
2023/02/11 03:22:08;;;;;;;;;;;;;;;2.11;77.72;101814.95;104846;1302;71114;-82
2023/02/11 03:24:55;;;;;;;;;;;;;;;2.11;77.70;101812.77;104684;1297;60959;-82
2023/02/11 03:27:41;;;;;;;;;;;;;;;2.11;77.79;101807.67;104796;1302;60030;-82
2023/02/11 03:30:42;;;;;;;;;;;;;;;2.13;77.78;101807.54;104823;1298;73272;-81
2023/02/11 03:33:33;;;;;;;;;;;;;;;2.12;77.84;101803.27;104701;1297;67244;-81
2023/02/11 03:36:27;;;;;;;;;;;;;;;2.12;77.82;101796.48;105178;1289;72844;-81
2023/02/11 03:39:16;;;;;;;;;;;;;;;2.11;77.82;101792.35;105387;1294;61189;-81
2023/02/11 03:42:04;;;;;;;;;;;;;;;2.11;77.80;101796.09;105197;1289;59207;-82
2023/02/11 03:44:55;;;;;;;;;;;;;;;2.12;77.85;101788.11;105296;1291;73840;-81
2023/02/11 03:47:45;;;;;;;;;;;;;;;2.12;77.81;101791.86;105321;1289;67412;-81
2023/02/11 03:50:32;;;;;;;;;;;;;;;2.12;77.85;101783.70;105188;1290;71129;-81
2023/02/11 03:53:19;;;;;;;;;;;;;;;2.12;77.85;101777.75;105360;1290;59596;-81
2023/02/11 03:56:08;;;;;;;;;;;;;;;2.12;77.87;101777.42;105426;1291;59318;-81
2023/02/11 03:58:55;;;;;;;;;;;;;;;2.13;77.84;101776.60;105387;1292;73345;-81
2023/02/11 04:01:41;;;;;;;;;;;;;;;2.12;77.89;101767.05;105357;1291;67269;-81
2023/02/11 04:04:27;;;;;;;;;;;;;;;2.12;77.91;101763.29;105510;1292;72345;-82
2023/02/11 04:07:12;;;;;;;;;;;;;;;2.12;77.92;101759.40;105435;1290;59237;-81
2023/02/11 04:09:59;;;;;;;;;;;;;;;2.13;77.92;101748.88;105438;1289;61489;-81
2023/02/11 04:12:45;;;;;;;;;;;;;;;2.14;77.89;101756.23;105348;1289;74834;-81
2023/02/11 04:15:31;;;;;;;;;;;;;;;2.13;77.88;101755.52;105255;1294;68043;-82
2023/02/11 04:18:17;;;;;;;;;;;;;;;2.14;77.94;101750.79;105362;1289;71385;-82
2023/02/11 04:21:03;;;;;;;;;;;;;;;2.14;77.92;101745.70;105448;1294;61322;-81
2023/02/11 04:23:49;;;;;;;;;;;;;;;2.15;77.93;101740.95;105411;1289;61370;-81
2023/02/11 04:26:35;;;;;;;;;;;;;;;2.15;77.88;101734.66;105336;1288;74924;-82
2023/02/11 04:29:21;;;;;;;;;;;;;;;2.15;77.93;101731.75;105453;1293;67947;-82
2023/02/11 04:32:08;;;;;;;;;;;;;;;2.15;77.97;101725.98;105180;1290;213430;-82
2023/02/11 04:34:54;;;;;;;;;;;;;;;2.15;77.95;101727.68;105308;1289;60351;-82
2023/02/11 04:37:40;;;;;;;;;;;;;;;2.15;77.99;101723.11;105360;1289;61065;-82
2023/02/11 04:40:26;;;;;;;;;;;;;;;2.16;77.98;101723.83;105414;1295;73639;-82
2023/02/11 04:43:12;;;;;;;;;;;;;;;2.18;77.98;101718.79;105461;1292;67669;-82
2023/02/11 04:45:58;;;;;;;;;;;;;;;2.19;78.01;101714.04;105382;1289;73112;-82
2023/02/11 04:48:44;;;;;;;;;;;;;;;2.19;78.07;101715.77;105292;1292;61229;-82
2023/02/11 04:51:30;;;;;;;;;;;;;;;2.20;78.05;101720.75;105448;1292;64689;-82
2023/02/11 04:54:16;;;;;;;;;;;;;;;2.21;78.04;101714.13;105405;1291;75284;-82
2023/02/11 04:57:03;;;;;;;;;;;;;;;2.22;78.11;101717.92;105390;1294;68002;-82
2023/02/11 04:59:49;;;;;;;;;;;;;;;2.24;78.04;101710.00;105370;1289;72380;-82
2023/02/11 05:02:35;;;;;;;;;;;;;;;2.25;78.10;101698.12;105357;1289;61070;-81
2023/02/11 05:05:21;;;;;;;;;;;;;;;2.26;78.08;101693.23;105311;1289;59622;-82
2023/02/11 05:08:08;;;;;;;;;;;;;;;2.27;78.14;101694.29;105442;1291;73392;-81
2023/02/11 05:10:54;;;;;;;;;;;;;;;2.28;78.16;101696.70;105321;1291;70771;-81
2023/02/11 05:13:40;;;;;;;;;;;;;;;2.30;78.18;101694.73;105437;1288;71743;-81
2023/02/11 05:16:26;;;;;;;;;;;;;;;2.32;78.22;101686.45;105392;1292;61032;-81
2023/02/11 05:19:13;;;;;;;;;;;;;;;2.34;78.24;101680.73;105507;1288;61526;-81
2023/02/11 05:21:59;;;;;;;;;;;;;;;2.36;78.29;101676.90;105471;1289;75961;-82
2023/02/11 05:24:45;;;;;;;;;;;;;;;2.39;78.29;101674.44;105373;1294;67233;-81
2023/02/11 05:27:31;;;;;;;;;;;;;;;2.41;78.31;101672.98;105393;1293;71388;-81
2023/02/11 05:30:18;;;;;;;;;;;;;;;2.44;78.35;101672.56;105371;1293;61547;-81
2023/02/11 05:33:04;;;;;;;;;;;;;;;2.47;78.34;101663.30;105491;1289;60993;-81
2023/02/11 05:35:50;;;;;;;;;;;;;;;2.50;78.38;101660.34;105550;1289;73172;-82
2023/02/11 05:38:37;;;;;;;;;;;;;;;2.52;78.42;101664.70;105488;1293;67972;-81
2023/02/11 05:41:23;;;;;;;;;;;;;;;2.55;78.48;101670.23;105392;1288;71938;-81
2023/02/11 05:44:09;;;;;;;;;;;;;;;2.57;78.41;101671.50;105367;1290;61319;-81
2023/02/11 05:46:55;;;;;;;;;;;;;;;2.59;78.52;101664.25;105310;1291;59726;-81
2023/02/11 05:49:41;;;;;;;;;;;;;;;2.62;78.51;101660.39;105448;1290;72362;-81
2023/02/11 05:52:27;;;;;;;;;;;;;;;2.64;78.49;101659.95;105367;1289;69341;-81
2023/02/11 05:55:13;;;;;;;;;;;;;;;2.65;78.63;101651.82;105414;1289;71184;-81
2023/02/11 05:57:59;;;;;;;;;;;;;;;2.68;78.62;101645.77;105291;1291;59242;-81
2023/02/11 06:00:46;;;;;;;;;;;;;;;2.70;78.65;101643.27;105352;1289;60272;-81
2023/02/11 06:03:32;;;;;;;;;;;;;;;2.72;78.68;101648.63;105275;1289;74559;-81
2023/02/11 06:06:18;;;;;;;;;;;;;;;2.74;78.75;101654.48;105293;1293;67284;-81
2023/02/11 06:09:04;;;;;;;;;;;;;;;2.75;78.78;101644.64;105352;1291;70774;-81
2023/02/11 06:11:50;;;;;;;;;;;;;;;2.77;78.78;101639.95;105272;1289;59629;-81
2023/02/11 06:14:36;;;;;;;;;;;;;;;2.79;78.80;101639.31;105377;1291;61949;-81
2023/02/11 06:17:22;;;;;;;;;;;;;;;2.79;78.84;101633.20;105390;1293;73274;-81
2023/02/11 06:20:09;;;;;;;;;;;;;;;2.81;78.90;101634.61;105237;1291;72744;-82
2023/02/11 06:22:55;;;;;;;;;;;;;;;2.81;78.93;101634.47;105242;1288;72432;-82
2023/02/11 06:25:41;;;;;;;;;;;;;;;2.83;78.90;101632.30;105496;1291;61051;-82
2023/02/11 06:28:30;;;;;;;;;;;;;;;2.83;78.96;101631.29;105348;1291;59334;-82
2023/02/11 06:31:17;;;;;;;;;;;;;;;2.83;79.08;101634.36;105421;1290;74526;-82
2023/02/11 06:34:03;;;;;;;;;;;;;;;2.85;79.00;101628.27;105334;1288;69004;-82
2023/02/11 06:36:49;;;;;;;;;;;;;;;2.86;79.13;101636.82;105364;1289;71409;-82
2023/02/11 06:39:36;;;;;;;;;;;;;;;2.87;79.22;101640.44;105232;1288;59098;-82
2023/02/11 06:42:22;;;;;;;;;;;;;;;2.88;79.29;101643.70;105294;1290;59477;-81
2023/02/11 06:45:09;;;;;;;;;;;;;;;2.89;79.32;101635.40;105407;1289;74409;-82
2023/02/11 06:47:56;;;;;;;;;;;;;;;2.91;79.38;101634.09;105367;1289;67942;-82
2023/02/11 06:50:42;;;;;;;;;;;;;;;2.92;79.38;101627.66;105235;1291;72389;-82
2023/02/11 06:53:28;;;;;;;;;;;;;;;2.93;79.31;101619.50;105367;1289;60520;-82
2023/02/11 06:56:16;;;;;;;;;;;;;;;2.94;79.42;101627.72;105255;1291;59759;-82
2023/02/11 06:59:02;;;;;;;;;;;;;;;2.95;79.36;101630.47;105245;1291;74217;-81
2023/02/11 07:01:48;;;;;;;;;;;;;;;2.96;79.57;101623.67;105370;1289;71767;-82
2023/02/11 07:04:35;;;;;;;;;;;;;;;2.98;79.53;101621.87;105336;1289;71995;-82
2023/02/11 07:07:21;;;;;;;;;;;;;;;3.00;79.49;101628.25;105386;1291;59554;-82
2023/02/11 07:10:07;;;;;;;;;;;;;;;3.02;79.59;101622.86;105351;1292;61112;-82
2023/02/11 07:12:54;;;;;;;;;;;;;;;3.04;79.52;101625.82;105303;1290;73710;-82
2023/02/11 07:15:40;;;;;;;;;;;;;;;3.06;79.53;101617.70;105379;1291;67612;-82
2023/02/11 07:18:26;;;;;;;;;;;;;;;3.07;79.59;101604.45;105200;1290;71412;-81
2023/02/11 07:21:13;;;;;;;;;;;;;;;3.08;79.62;101612.29;105258;1291;61029;-82
2023/02/11 07:24:00;;;;;;;;;;;;;;;3.08;79.75;101621.34;105498;1292;60000;-82
2023/02/11 07:26:46;;;;;;;;;;;;;;;3.09;79.69;101614.02;105251;1294;73393;-82
2023/02/11 07:29:32;;;;;;;;;;;;;;;3.09;79.76;101620.67;105287;1290;67111;-82
2023/02/11 07:32:18;;;;;;;;;;;;;;;3.08;79.75;101621.50;105407;1291;71289;-82
2023/02/11 07:35:05;;;;;;;;;;;;;;;3.08;79.79;101615.70;105233;1289;61120;-82
2023/02/11 07:37:51;;;;;;;;;;;;;;;3.09;79.90;101603.47;105351;1290;59393;-82
2023/02/11 07:40:38;;;;;;;;;;;;;;;3.09;79.99;101601.44;105340;1288;73190;-82
2023/02/11 07:43:24;;;;;;;;;;;;;;;3.10;79.98;101598.73;105318;1288;67263;-82
2023/02/11 07:46:12;;;;;;;;;;;;;;;3.11;79.96;101595.69;105382;1292;75590;-83
2023/02/11 07:48:59;;;;;;;;;;;;;;;3.12;80.02;101604.58;105230;1289;59280;-83
2023/02/11 07:51:46;;;;;;;;;;;;;;;3.14;80.11;101608.03;105154;1289;61218;-83
2023/02/11 07:54:32;;;;;;;;;;;;;;;3.16;80.09;101615.57;105390;1288;73168;-83
2023/02/11 07:57:18;;;;;;;;;;;;;;;3.17;80.09;101609.83;105288;1288;71308;-83
2023/02/11 08:00:05;;;;;;;;;;;;;;;3.19;80.12;101607.84;105283;1288;71179;-83
2023/02/11 08:02:51;;;;;;;;;;;;;;;3.20;80.19;101601.58;105375;1289;61627;-83
2023/02/11 08:05:38;;;;;;;;;;;;;;;3.22;80.18;101604.02;105315;1288;59845;-83
2023/02/11 08:08:27;;;;;;;;;;;;;;;3.25;80.13;101598.48;105305;1290;73153;-83
2023/02/11 08:11:18;;;;;;;;;;;;;;;3.29;80.11;101590.41;105405;1290;67708;-83
2023/02/11 08:14:04;;;;;;;;;;;;;;;3.32;80.26;101606.54;105355;1289;71218;-83
2023/02/11 08:16:51;;;;;;;;;;;;;;;3.36;80.16;101611.08;105209;1289;59418;-82
2023/02/11 08:19:37;;;;;;;;;;;;;;;3.41;80.11;101617.67;105243;1290;59874;-82
2023/02/11 08:22:23;;;;;;;;;;;;;;;3.45;80.10;101632.98;105207;1293;74889;-82
2023/02/11 08:25:09;;;;;;;;;;;;;;;3.48;80.13;101635.12;105305;1288;68543;-82
2023/02/11 08:27:55;;;;;;;;;;;;;;;3.51;80.24;101629.75;105160;1290;71513;-82
2023/02/11 08:30:42;;;;;;;;;;;;;;;3.53;80.20;101622.83;105373;1290;61262;-82
2023/02/11 08:33:28;;;;;;;;;;;;;;;3.55;80.13;101622.02;105254;1290;61284;-82
2023/02/11 08:36:17;;;;;;;;;;;;;;;3.57;80.21;101621.40;105267;1288;74177;-82
2023/02/11 08:39:05;;;;;;;;;;;;;;;3.59;80.27;101617.87;105389;1290;67354;-82
2023/02/11 08:41:52;;;;;;;;;;;;;;;3.61;80.28;101618.79;105323;1289;71493;-82
2023/02/11 08:44:38;;;;;;;;;;;;;;;3.63;80.12;101625.33;105254;1289;61229;-82
2023/02/11 08:47:25;;;;;;;;;;;;;;;3.66;80.30;101614.30;105287;1289;61644;-82
2023/02/11 08:50:11;;;;;;;;;;;;;;;3.70;80.28;101602.98;105229;1291;73186;-82
2023/02/11 08:52:57;;;;;;;;;;;;;;;3.75;80.32;101605.51;105352;1289;67223;-83
2023/02/11 08:55:47;;;;;;;;;;;;;;;3.80;80.34;101590.96;105259;1290;71216;-82
2023/02/11 08:58:33;;;;;;;;;;;;;;;3.82;80.30;101583.73;105390;1290;61059;-82
2023/02/11 09:01:21;;;;;;;;;;;;;;;3.86;80.49;101595.59;105365;1291;61070;-83
2023/02/11 09:04:08;;;;;;;;;;;;;;;3.89;80.33;101589.86;105311;1290;74116;-82
2023/02/11 09:06:54;;;;;;;;;;;;;;;3.91;80.31;101599.48;105432;1289;68085;-83
2023/02/11 09:09:40;;;;;;;;;;;;;;;3.95;80.36;101601.12;105237;1290;72551;-82
2023/02/11 09:12:26;;;;;;;;;;;;;;;3.98;80.46;101585.34;105372;1289;59553;-82
2023/02/11 09:15:12;;;;;;;;;;;;;;;4.03;80.45;101578.98;105333;1290;59329;-82
2023/02/11 09:17:58;;;;;;;;;;;;;;;4.07;80.50;101577.39;105386;1289;74455;-83
2023/02/11 09:20:44;;;;;;;;;;;;;;;4.10;80.50;101569.27;105163;1290;67299;-82
2023/02/11 09:23:33;;;;;;;;;;;;;;;4.15;80.58;101584.57;105005;1289;71451;-82
2023/02/11 09:26:30;;;;;;;;;;;;;;;4.19;80.52;101583.12;105372;1293;59289;-83
2023/02/11 09:29:16;;;;;;;;;;;;;;;4.22;80.60;101579.45;105195;1289;61122;-82
2023/02/11 09:32:03;;;;;;;;;;;;;;;4.25;80.60;101574.08;105351;1291;73389;-83
2023/02/11 09:34:48;;;;;;;;;;;;;;;4.32;80.67;101579.02;105335;1288;69315;-84
2023/02/11 09:37:34;;;;;;;;;;;;;;;4.38;80.68;101577.64;105331;1289;73197;-84
2023/02/11 09:40:21;;;;;;;;;;;;;;;4.42;80.61;101577.91;105388;1291;59128;-83
2023/02/11 09:43:16;;;;;;;;;;;;;;;4.44;80.68;101587.35;105300;1290;61056;-83
2023/02/11 09:46:03;;;;;;;;;;;;;;;4.45;80.66;101587.89;105350;1290;75299;-83
2023/02/11 09:48:52;;;;;;;;;;;;;;;4.46;80.68;101580.90;105278;1290;67864;-83
2023/02/11 09:51:46;;;;;;;;;;;;;;;4.47;80.75;101585.71;105343;1289;72521;-83
2023/02/11 09:54:53;;;;;;;;;;;;;;;4.48;80.69;101587.25;105352;1289;61083;-82
2023/02/11 09:57:39;;;;;;;;;;;;;;;4.48;80.68;101585.39;105433;1289;59807;-83
2023/02/11 10:00:46;;;;;;;;;;;;;;;4.50;80.70;101569.73;105306;1289;73364;-83
2023/02/11 10:03:50;;;;;;;;;;;;;;;4.55;80.82;101558.91;105553;1289;71430;-84
2023/02/11 10:06:59;;;;;;;;;;;;;;;4.62;81.02;101554.66;105500;1293;70274;-85
2023/02/11 10:09:48;;;;;;;;;;;;;;;4.68;80.93;101569.80;104888;1300;59423;-85
2023/02/11 10:12:48;;;;;;;;;;;;;;;4.71;80.89;101569.34;104815;1296;60677;-85
2023/02/11 10:16:13;;;;;;;;;;;;;;;4.72;80.94;101560.33;104870;1297;74976;-85
2023/02/11 10:19:04;;;;;;;;;;;;;;;4.73;80.94;101536.25;104150;1305;67434;-85
2023/02/11 10:22:26;;;;;;;;;;;;;;;4.73;81.02;101513.89;104117;1305;72151;-85
2023/02/11 10:25:36;;;;;;;;;;;;;;;4.74;81.20;101499.05;103351;1313;59285;-85
2023/02/11 10:28:29;;;;;;;;;;;;;;;4.75;81.20;101501.13;103409;1313;61214;-85
2023/02/11 10:31:27;;;;;;;;;;;;;;;4.76;81.22;101518.91;103367;1316;73375;-85
2023/02/11 10:34:14;;;;;;;;;;;;;;;4.79;81.15;101527.68;103342;1313;67285;-85
2023/02/11 10:37:00;;;;;;;;;;;;;;;4.80;81.21;101529.40;103338;1314;73639;-83
2023/02/11 10:39:46;;;;;;;;;;;;;;;4.81;81.24;101503.97;103272;1316;59488;-82
2023/02/11 10:42:33;;;;;;;;;;;;;;;4.81;81.37;101493.91;103403;1313;61379;-81
2023/02/11 10:45:27;;;;;;;;;;;;;;;4.83;81.35;101468.15;103392;1311;73323;-82
2023/02/11 10:48:31;;;;;;;;;;;;;;;4.85;81.42;101474.02;104007;1307;68037;-81
2023/02/11 10:51:22;;;;;;;;;;;;;;;4.89;81.40;101435.14;104582;1299;73140;-81
2023/02/11 10:54:18;;;;;;;;;;;;;;;4.92;81.45;101430.92;104379;1298;61179;-81
2023/02/11 10:57:04;;;;;;;;;;;;;;;4.95;81.44;101426.39;104658;1298;61096;-82
2023/02/11 10:59:55;;;;;;;;;;;;;;;4.98;81.44;101450.20;105200;1293;74848;-81
2023/02/11 11:03:05;;;;;;;;;;;;;;;5.01;81.50;101449.73;105401;1288;68196;-83
2023/02/11 11:05:54;;;;;;;;;;;;;;;5.04;81.48;101447.05;105455;1288;71169;-82
2023/02/11 11:08:43;;;;;;;;;;;;;;;5.07;81.51;101448.15;105264;1289;59582;-83
2023/02/11 11:11:29;;;;;;;;;;;;;;;5.09;81.60;101440.33;105401;1290;58953;-81
2023/02/11 11:14:19;;;;;;;;;;;;;;;5.12;81.54;101438.84;105311;1291;74408;-83
2023/02/11 11:17:17;;;;;;;;;;;;;;;5.13;81.60;101448.78;105149;1289;67985;-83
2023/02/11 11:20:12;;;;;;;;;;;;;;;5.14;81.65;101470.34;104901;1291;72171;-83
2023/02/11 11:23:14;;;;;;;;;;;;;;;5.15;81.71;101474.28;105372;1291;61389;-83
2023/02/11 11:26:05;;;;;;;;;;;;;;;5.15;81.77;101478.05;105329;1289;59355;-84
2023/02/11 11:28:57;;;;;;;;;;;;;;;5.17;81.65;101496.55;105243;1290;73123;-84
2023/02/11 11:32:03;;;;;;;;;;;;;;;5.18;81.73;101487.86;105399;1289;67299;-83
2023/02/11 11:34:54;;;;;;;;;;;;;;;5.19;81.78;101488.73;105401;1291;72858;-83
2023/02/11 11:37:40;;;;;;;;;;;;;;;5.21;81.69;101498.81;105493;1289;59324;-82
2023/02/11 11:40:28;;;;;;;;;;;;;;;5.23;81.72;101502.95;105484;1291;59286;-84
2023/02/11 11:43:19;;;;;;;;;;;;;;;5.26;81.81;101496.34;105409;1288;75289;-84
2023/02/11 11:46:08;;;;;;;;;;;;;;;5.28;81.84;101504.95;105435;1288;67396;-81
2023/02/11 11:49:03;;;;;;;;;;;;;;;5.31;81.97;101499.88;105287;1290;71280;-79
2023/02/11 11:52:09;;;;;;;;;;;;;;;5.34;81.88;101510.70;105477;1290;61058;-80
2023/02/11 11:55:00;;;;;;;;;;;;;;;5.36;81.97;101521.69;105402;1290;59568;-80
2023/02/11 11:57:47;;;;;;;;;;;;;;;5.36;82.01;101516.90;105328;1293;73102;-80
2023/02/11 12:00:43;;;;;;;;;;;;;;;5.38;82.07;101523.77;101491;1291;5061016;-80
2023/02/11 12:03:48;;;;;;;;;;;;;;;5.40;82.05;101518.34;105427;1289;70165;-80
2023/02/11 12:06:44;;;;;;;;;;;;;;;5.42;82.20;101526.41;105429;1291;61254;-80
2023/02/11 12:09:56;;;;;;;;;;;;;;;5.42;82.08;101531.38;105270;1290;60013;-80
2023/02/11 12:12:52;;;;;;;;;;;;;;;5.43;82.23;101529.70;105040;1294;73228;-80
2023/02/11 12:15:54;;;;;;;;;;;;;;;5.45;82.17;101531.95;105033;1293;71455;-80
2023/02/11 12:18:55;;;;;;;;;;;;;;;5.46;82.24;101532.33;104961;1294;71395;-79
2023/02/11 12:21:43;;;;;;;;;;;;;;;5.48;82.28;101534.40;104920;1294;59779;-80
2023/02/11 12:24:39;;;;;;;;;;;;;;;5.50;82.32;101527.09;104952;1294;61092;-79
2023/02/11 12:27:45;;;;;;;;;;;;;;;5.50;82.33;101525.23;104970;1294;74436;-79
2023/02/11 12:30:50;;;;;;;;;;;;;;;5.52;82.34;101519.77;104561;1299;67652;-80
2023/02/11 12:33:48;;;;;;;;;;;;;;;5.54;82.45;101507.34;104554;1299;71876;-78
2023/02/11 12:36:46;;;;;;;;;;;;;;;5.56;82.41;101513.88;104521;1301;60353;-84
2023/02/11 12:40:10;;;;;;;;;;;;;;;5.58;82.48;101503.14;104100;1300;61258;-83
2023/02/11 12:43:15;;;;;;;;;;;;;;;5.61;82.52;101498.23;103838;1305;73393;-83
2023/02/11 12:46:20;;;;;;;;;;;;;;;5.65;82.59;101501.55;103997;1306;67533;-83
2023/02/11 12:49:13;;;;;;;;;;;;;;;5.65;82.57;101503.62;104161;1302;74458;-83
2023/02/11 12:52:08;;;;;;;;;;;;;;;5.66;82.60;101498.33;104260;1308;59665;-84
2023/02/11 12:54:58;;;;;;;;;;;;;;;5.68;82.73;101491.52;104301;1305;59823;-83
2023/02/11 12:57:45;;;;;;;;;;;;;;;5.71;82.65;101491.90;104203;1305;73352;-83
2023/02/11 13:00:37;;;;;;;;;;;;;;;5.73;82.74;101493.80;104131;1306;67351;-83
2023/02/11 13:03:34;;;;;;;;;;;;;;;5.75;82.73;101492.45;104228;1308;72126;-83
2023/02/11 13:07:01;;;;;;;;;;;;;;;5.77;82.77;101493.36;104303;1304;59417;-83
2023/02/11 13:09:51;;;;;;;;;;;;;;;5.79;82.74;101500.75;104458;1303;59637;-83
2023/02/11 13:15:44;;;;;;;;;;;;;;;5.82;82.82;101503.38;104978;1295;68701;-84
2023/02/11 13:18:34;;;;;;;;;;;;;;;5.83;82.75;101505.45;104865;1297;71199;-83
2023/02/11 13:21:26;;;;;;;;;;;;;;;5.84;82.78;101505.98;104876;1296;59304;-84
2023/02/11 13:24:22;;;;;;;;;;;;;;;5.84;82.80;101517.78;104859;1296;61007;-84
2023/02/11 13:27:28;;;;;;;;;;;;;;;5.85;82.82;101518.81;104842;1294;73649;-84
2023/02/11 13:30:35;;;;;;;;;;;;;;;5.85;82.73;101524.13;104258;1302;67652;-84
2023/02/11 13:33:32;;;;;;;;;;;;;;;5.85;82.81;101518.48;103725;1310;71303;-84
2023/02/11 13:36:19;;;;;;;;;;;;;;;5.86;82.81;101523.80;103708;1311;59625;-84
2023/02/11 13:39:05;;;;;;;;;;;;;;;5.86;82.92;101516.95;103740;1312;60079;-83
2023/02/11 13:42:01;;;;;;;;;;;;;;;5.86;82.92;101517.64;104056;1305;74618;-84
2023/02/11 13:44:47;;;;;;;;;;;;;;;5.86;82.94;101521.23;104040;1305;67667;-84
2023/02/11 13:47:36;;;;;;;;;;;;;;;5.87;82.91;101521.77;104002;1307;123221;-84
2023/02/11 13:50:24;;;;;;;;;;;;;;;5.87;82.98;101528.27;104046;1305;61444;-83
2023/02/11 13:53:10;;;;;;;;;;;;;;;5.88;83.00;101524.87;103968;1310;61345;-83
2023/02/11 13:56:10;;;;;;;;;;;;;;;5.88;83.04;101525.91;104045;1305;74414;-83
2023/02/11 13:58:58;;;;;;;;;;;;;;;5.89;82.99;101528.35;104080;1305;67357;-84
2023/02/11 14:11:25;;;;;;;;;;;;;;;5.95;83.09;101547.44;105139;1291;74815;-84
2023/02/11 14:14:11;;;;;;;;;;;;;;;5.96;83.12;101550.02;105350;1289;71442;-83
2023/02/11 14:17:17;;;;;;;;;;;;;;;5.97;83.13;101555.36;105497;1289;71340;-84
2023/02/11 14:20:24;;;;;;;;;;;;;;;5.99;83.09;101555.56;104797;1296;61471;-84
2023/02/11 14:23:20;;;;;;;;;;;;;;;6.01;83.18;101564.84;104704;1297;59814;-84
2023/02/11 14:26:18;;;;;;;;;;;;;;;6.03;83.18;101566.23;104741;1296;73694;-84
2023/02/11 14:29:16;;;;;;;;;;;;;;;6.04;83.22;101565.56;104775;1296;67390;-84
2023/02/11 14:32:08;;;;;;;;;;;;;;;6.05;83.21;101568.66;104781;1297;72775;-84
2023/02/11 14:37:32;;;;;;;;;;;;;;;6.06;83.21;101575.36;105319;1291;64964;-84
2023/02/11 14:40:33;;;;;;;;;;;;;;;6.08;83.27;101582.41;105357;1290;74912;-86
2023/02/11 14:43:22;;;;;;;;;;;;;;;6.09;83.29;101580.20;105423;1291;68201;-84
2023/02/11 14:46:08;;;;;;;;;;;;;;;6.11;83.38;101587.10;105243;1291;71458;-84
2023/02/11 14:48:57;;;;;;;;;;;;;;;6.12;83.33;101591.55;105405;1293;59610;-85
2023/02/11 14:51:43;;;;;;;;;;;;;;;6.13;83.29;101599.98;105213;1288;274506;-80
2023/02/11 14:54:29;;;;;;;;;;;;;;;6.15;83.38;101608.91;105542;1288;74056;-82